createdAt,value
2022-08-05T00:01:36.549Z,23.20
2022-08-05T00:04:19.272Z,23.20
2022-08-05T00:06:47.194Z,23.30
2022-08-05T00:09:19.494Z,23.30
2022-08-05T00:11:55.683Z,23.40
2022-08-05T00:14:31.460Z,23.40
2022-08-05T00:17:01.986Z,23.40
2022-08-05T00:19:40.644Z,23.30
2022-08-05T00:22:13.125Z,23.30
2022-08-05T00:24:42.541Z,23.30
2022-08-05T00:27:14.078Z,23.40
2022-08-05T00:29:44.421Z,23.30
2022-08-05T00:32:15.458Z,23.30
2022-08-05T00:35:04.281Z,23.30
2022-08-05T00:37:35.706Z,23.40
2022-08-05T00:40:27.329Z,23.40
2022-08-05T00:43:02.610Z,23.30
2022-08-05T00:45:42.865Z,23.30
2022-08-05T00:48:13.372Z,23.20
2022-08-05T00:50:44.399Z,23.30
2022-08-05T00:54:01.063Z,23.20
2022-08-05T00:56:05.609Z,23.10
2022-08-05T00:58:35.661Z,22.80
2022-08-05T01:01:08.621Z,22.90
2022-08-05T01:03:40.676Z,22.90
2022-08-05T01:06:15.249Z,22.70
2022-08-05T01:08:47.263Z,22.70
2022-08-05T01:11:33.588Z,22.90
2022-08-05T01:14:37.147Z,23.00
2022-08-05T01:17:32.070Z,23.10
2022-08-05T01:20:20.482Z,22.90
2022-08-05T01:23:15.050Z,22.20
2022-08-05T01:26:26.320Z,21.70
2022-08-05T01:28:58.111Z,21.00
2022-08-05T01:31:54.385Z,21.00
2022-08-05T01:34:35.915Z,21.50
2022-08-05T01:37:05.449Z,21.70
2022-08-05T01:39:47.282Z,21.90
2022-08-05T01:42:19.409Z,22.10
2022-08-05T01:44:54.053Z,22.10
2022-08-05T01:47:38.959Z,22.20
2022-08-05T01:50:16.048Z,22.30
2022-08-05T01:52:49.789Z,22.30
2022-08-05T01:55:21.729Z,22.50
2022-08-05T01:58:29.709Z,22.60
2022-08-05T02:00:42.424Z,22.60
2022-08-05T02:03:31.815Z,22.60
2022-08-05T02:06:03.773Z,22.60
2022-08-05T02:08:58.613Z,22.50
2022-08-05T02:11:35.119Z,22.60
2022-08-05T02:14:16.250Z,22.60
2022-08-05T02:16:55.894Z,22.60
2022-08-05T02:19:25.897Z,22.70
2022-08-05T02:22:25.634Z,22.70
2022-08-05T02:25:03.373Z,22.70
2022-08-05T02:27:58.978Z,22.70
2022-08-05T02:30:26.896Z,22.70
2022-08-05T02:32:56.530Z,22.80
2022-08-05T02:35:33.257Z,22.70
2022-08-05T02:38:09.344Z,22.80
2022-08-05T02:40:41.902Z,22.80
2022-08-05T02:43:13.994Z,22.80
2022-08-05T02:45:52.737Z,22.80
2022-08-05T02:48:29.418Z,22.80
2022-08-05T02:51:01.477Z,22.80
2022-08-05T02:53:39.034Z,22.80
2022-08-05T02:56:15.670Z,22.80
2022-08-05T02:58:51.618Z,22.90
2022-08-05T03:01:25.047Z,22.80
2022-08-05T03:04:04.321Z,22.70
2022-08-05T03:06:56.884Z,22.70
2022-08-05T03:09:37.733Z,22.80
2022-08-05T03:12:10.805Z,22.70
2022-08-05T03:14:45.652Z,22.70
2022-08-05T03:17:13.545Z,22.70
2022-08-05T03:19:41.800Z,22.80
2022-08-05T03:22:16.686Z,22.70
2022-08-05T03:24:52.227Z,22.60
2022-08-05T03:27:20.447Z,22.60
2022-08-05T03:30:08.211Z,22.70
2022-08-05T03:32:35.505Z,22.70
2022-08-05T03:35:04.346Z,22.60
2022-08-05T03:37:32.083Z,22.60
2022-08-05T03:40:15.437Z,22.70
2022-08-05T03:42:56.359Z,22.60
2022-08-05T03:45:23.850Z,22.60
2022-08-05T03:47:56.738Z,22.60
2022-08-05T03:50:25.793Z,22.50
2022-08-05T03:55:54.208Z,22.60
2022-08-05T03:56:11.051Z,22.50
2022-08-05T03:58:46.926Z,22.50
2022-08-05T04:01:21.004Z,22.40
2022-08-05T04:04:05.377Z,22.40
2022-08-05T04:06:48.060Z,22.30
2022-08-05T04:09:20.274Z,22.20
2022-08-05T04:11:56.456Z,22.20
2022-08-05T04:14:30.405Z,22.10
2022-08-05T04:17:00.256Z,22.20
2022-08-05T04:19:31.221Z,22.10
2022-08-05T04:22:08.180Z,22.20
2022-08-05T04:24:44.299Z,22.20
2022-08-05T04:27:13.540Z,22.20
2022-08-05T04:29:41.722Z,22.10
2022-08-05T04:32:14.559Z,22.10
2022-08-05T04:34:50.008Z,22.20
2022-08-05T04:38:01.602Z,22.30
2022-08-05T04:40:13.041Z,22.20
2022-08-05T04:42:46.636Z,22.20
2022-08-05T04:45:14.137Z,22.20
2022-08-05T04:47:50.347Z,22.20
2022-08-05T04:50:37.204Z,22.20
2022-08-05T04:53:10.866Z,22.30
2022-08-05T04:56:14.768Z,22.20
2022-08-05T04:58:27.404Z,22.20
2022-08-05T05:00:55.319Z,22.10
2022-08-05T05:03:22.577Z,22.00
2022-08-05T05:06:35.885Z,22.00
2022-08-05T05:08:42.763Z,22.10
2022-08-05T05:11:15.191Z,22.10
2022-08-05T05:13:43.612Z,22.10
2022-08-05T05:16:11.574Z,22.10
2022-08-05T05:18:52.430Z,22.10
2022-08-05T05:21:28.612Z,22.00
2022-08-05T05:24:04.260Z,22.00
2022-08-05T05:26:36.452Z,22.10
2022-08-05T05:29:14.257Z,22.10
2022-08-05T05:31:42.320Z,22.10
2022-08-05T05:34:13.853Z,22.00
2022-08-05T05:36:42.833Z,22.10
2022-08-05T05:39:15.315Z,22.10
2022-08-05T05:41:46.892Z,22.20
2022-08-05T05:44:37.755Z,22.20
2022-08-05T05:47:30.281Z,22.30
2022-08-05T05:50:05.689Z,22.30
2022-08-05T05:52:38.062Z,22.40
2022-08-05T05:55:13.551Z,22.30
2022-08-05T05:57:52.982Z,22.40
2022-08-05T06:00:27.562Z,22.40
2022-08-05T06:03:02.389Z,22.40
2022-08-05T06:05:31.899Z,22.50
2022-08-05T06:08:01.673Z,22.50
2022-08-05T06:10:36.207Z,22.50
2022-08-05T06:13:05.308Z,22.30
2022-08-05T06:16:29.446Z,22.40
2022-08-05T06:18:31.411Z,22.30
2022-08-05T06:20:59.477Z,22.40
2022-08-05T06:23:26.810Z,22.40
2022-08-05T06:26:13.612Z,22.40
2022-08-05T06:28:49.742Z,22.40
2022-08-05T06:31:22.058Z,22.60
2022-08-05T06:34:07.195Z,22.60
2022-08-05T06:36:56.789Z,22.70
2022-08-05T06:39:27.197Z,22.70
2022-08-05T06:42:02.018Z,22.70
2022-08-05T06:44:31.591Z,22.60
2022-08-05T06:46:59.407Z,22.80
2022-08-05T06:50:00.101Z,22.90
2022-08-05T06:52:36.424Z,23.00
2022-08-05T06:55:06.801Z,23.00
2022-08-05T06:58:02.799Z,22.90
2022-08-05T07:00:22.316Z,22.90
2022-08-05T07:02:54.683Z,23.10
2022-08-05T07:05:36.878Z,23.00
2022-08-05T07:08:04.917Z,23.00
2022-08-05T07:10:36.943Z,22.90
2022-08-05T07:13:56.859Z,22.60
2022-08-05T07:17:57.014Z,22.70
2022-08-05T07:19:44.282Z,23.00
2022-08-05T07:22:06.516Z,22.80
2022-08-05T07:24:44.035Z,22.80
2022-08-05T07:27:22.719Z,22.90
2022-08-05T07:30:23.976Z,23.10
2022-08-05T07:32:45.706Z,23.30
2022-08-05T07:36:01.483Z,23.50
2022-08-05T07:38:32.250Z,23.80
2022-08-05T07:41:16.785Z,24.00
2022-08-05T07:43:48.761Z,24.20
2022-08-05T07:46:24.709Z,24.10
2022-08-05T07:49:02.857Z,24.40
2022-08-05T07:51:40.751Z,24.80
2022-08-05T07:54:23.184Z,25.40
2022-08-05T07:57:14.715Z,25.90
2022-08-05T07:59:43.845Z,26.40
2022-08-05T08:02:18.043Z,26.60
2022-08-05T08:04:47.328Z,26.60
2022-08-05T08:07:18.377Z,26.10
2022-08-05T08:09:52.281Z,25.90
2022-08-05T08:12:37.378Z,25.80
2022-08-05T08:15:15.132Z,26.60
2022-08-05T08:17:52.293Z,26.80
2022-08-05T08:20:44.369Z,27.00
2022-08-05T08:24:01.379Z,27.60
2022-08-05T08:26:02.748Z,27.60
2022-08-05T08:28:37.540Z,28.00
2022-08-05T08:31:21.925Z,28.20
2022-08-05T08:33:53.157Z,27.70
2022-08-05T08:36:38.104Z,27.50
2022-08-05T08:39:15.019Z,27.60
2022-08-05T08:41:52.231Z,27.70
2022-08-05T08:45:18.433Z,28.10
2022-08-05T08:48:05.564Z,28.40
2022-08-05T08:50:31.726Z,28.30
2022-08-05T08:53:12.048Z,28.40
2022-08-05T08:56:03.691Z,28.40
2022-08-05T08:58:43.644Z,28.40
2022-08-05T09:01:16.217Z,29.00
2022-08-05T09:03:54.344Z,29.00
2022-08-05T09:06:30.025Z,29.00
2022-08-05T09:09:04.030Z,28.90
2022-08-05T09:11:51.836Z,29.20
2022-08-05T09:14:57.619Z,29.50
2022-08-05T09:17:16.187Z,30.20
2022-08-05T09:20:04.683Z,30.40
2022-08-05T09:23:09.372Z,30.00
2022-08-05T09:26:02.704Z,29.00
2022-08-05T09:28:32.564Z,27.80
2022-08-05T09:31:43.914Z,27.10
2022-08-05T09:34:11.794Z,26.80
2022-08-05T09:36:56.234Z,26.70
2022-08-05T09:39:45.457Z,26.70
2022-08-05T09:42:28.106Z,27.20
2022-08-05T09:45:17.701Z,28.00
2022-08-05T09:47:56.321Z,28.90
2022-08-05T09:50:38.122Z,29.90
2022-08-05T09:53:22.691Z,30.60
2022-08-05T09:56:04.591Z,30.90
2022-08-05T09:58:42.578Z,30.70
2022-08-05T10:01:31.450Z,31.40
2022-08-05T10:04:03.541Z,32.00
2022-08-05T10:06:31.819Z,32.40
2022-08-05T10:09:27.329Z,32.10
2022-08-05T10:12:18.639Z,31.20
2022-08-05T10:15:21.586Z,30.40
2022-08-05T10:18:10.413Z,30.80
2022-08-05T10:20:48.561Z,30.00
2022-08-05T10:23:55.938Z,30.70
2022-08-05T10:26:15.112Z,31.20
2022-08-05T10:28:46.382Z,30.80
2022-08-05T10:32:53.602Z,30.30
2022-08-05T10:34:08.260Z,29.70
2022-08-05T10:36:41.050Z,29.00
2022-08-05T10:39:24.990Z,28.60
2022-08-05T10:42:32.389Z,28.00
2022-08-05T10:45:21.016Z,28.30
2022-08-05T10:48:29.185Z,29.20
2022-08-05T10:51:22.437Z,30.00
2022-08-05T10:54:05.955Z,30.80
2022-08-05T10:56:58.463Z,31.60
2022-08-05T11:00:02.727Z,32.10
2022-08-05T11:02:37.586Z,31.90
2022-08-05T11:05:10.233Z,31.80
2022-08-05T11:08:02.753Z,31.70
2022-08-05T11:10:38.704Z,32.10
2022-08-05T11:13:39.898Z,32.40
2022-08-05T11:16:34.065Z,32.20
2022-08-05T11:20:17.565Z,31.30
2022-08-05T11:22:42.067Z,30.90
2022-08-05T11:26:04.815Z,31.20
2022-08-05T11:28:21.389Z,31.90
2022-08-05T11:30:58.224Z,32.70
2022-08-05T11:33:46.626Z,33.10
2022-08-05T11:36:34.385Z,32.60
2022-08-05T11:39:09.606Z,31.80
2022-08-05T11:42:01.673Z,31.20
2022-08-05T11:44:52.957Z,30.80
2022-08-05T11:47:48.315Z,30.20
2022-08-05T11:50:14.452Z,29.50
2022-08-05T11:52:43.843Z,28.90
2022-08-05T11:55:14.211Z,28.80
2022-08-05T11:58:10.795Z,28.90
2022-08-05T12:00:38.012Z,29.40
2022-08-05T12:03:29.610Z,29.30
2022-08-05T12:06:05.625Z,29.00
2022-08-05T12:08:53.564Z,28.70
2022-08-05T12:11:22.983Z,28.30
2022-08-05T12:14:05.194Z,28.10
2022-08-05T12:16:38.520Z,28.30
2022-08-05T12:19:08.314Z,28.60
2022-08-05T12:21:43.122Z,29.00
2022-08-05T12:24:14.103Z,29.60
2022-08-05T12:26:52.808Z,30.10
2022-08-05T12:29:23.402Z,30.40
2022-08-05T12:31:58.604Z,30.70
2022-08-05T12:34:33.498Z,31.00
2022-08-05T12:37:17.292Z,31.30
2022-08-05T12:39:54.012Z,31.30
2022-08-05T12:42:25.302Z,30.90
2022-08-05T12:44:52.884Z,30.50
2022-08-05T12:47:30.647Z,30.10
2022-08-05T12:50:04.071Z,29.70
2022-08-05T12:52:42.336Z,29.10
2022-08-05T12:55:22.196Z,29.40
2022-08-05T12:58:50.286Z,29.90
2022-08-05T13:02:02.289Z,30.40
2022-08-05T13:03:41.343Z,30.70
2022-08-05T13:06:17.200Z,31.20
2022-08-05T13:08:52.117Z,30.90
2022-08-05T13:12:01.978Z,31.00
2022-08-05T13:14:35.931Z,30.40
2022-08-05T13:17:32.080Z,29.80
2022-08-05T13:20:23.649Z,29.90
2022-08-05T13:22:56.397Z,30.30
2022-08-05T13:25:51.982Z,30.60
2022-08-05T13:28:15.456Z,30.50
2022-08-05T13:30:45.782Z,30.10
2022-08-05T13:34:23.514Z,29.70
2022-08-05T13:36:05.305Z,29.50
2022-08-05T13:38:36.355Z,29.40
2022-08-05T13:41:11.692Z,29.60
2022-08-05T13:43:45.235Z,29.70
2022-08-05T13:46:37.684Z,29.70
2022-08-05T13:49:11.890Z,29.30
2022-08-05T13:51:46.371Z,28.70
2022-08-05T13:54:16.092Z,28.20
2022-08-05T13:56:51.539Z,27.80
2022-08-05T13:59:24.441Z,28.00
2022-08-05T14:01:57.363Z,28.40
2022-08-05T14:05:19.554Z,28.20
2022-08-05T14:08:02.980Z,28.10
2022-08-05T14:10:35.469Z,28.10
2022-08-05T14:13:07.392Z,27.90
2022-08-05T14:16:07.706Z,28.10
2022-08-05T14:18:27.305Z,28.30
2022-08-05T14:20:55.410Z,28.30
2022-08-05T14:23:25.403Z,27.90
2022-08-05T14:26:00.808Z,27.50
2022-08-05T14:28:29.522Z,27.40
2022-08-05T14:30:58.085Z,27.40
2022-08-05T14:33:25.440Z,27.00
2022-08-05T14:35:55.094Z,26.80
2022-08-05T14:38:32.655Z,26.80
2022-08-05T14:41:07.886Z,26.80
2022-08-05T14:43:59.215Z,26.70
2022-08-05T14:46:28.516Z,26.70
2022-08-05T14:49:06.441Z,27.00
2022-08-05T14:51:42.755Z,27.30
2022-08-05T14:54:27.664Z,27.30
2022-08-05T14:56:58.603Z,27.30
2022-08-05T14:59:43.278Z,27.30
2022-08-05T15:02:15.081Z,27.40
2022-08-05T15:04:47.882Z,27.50
2022-08-05T15:08:11.295Z,27.60
2022-08-05T15:10:12.041Z,27.80
2022-08-05T15:13:00.139Z,27.80
2022-08-05T15:15:54.535Z,27.70
2022-08-05T15:18:19.984Z,27.50
2022-08-05T15:20:49.500Z,27.80
2022-08-05T15:23:17.432Z,27.70
2022-08-05T15:25:52.098Z,27.70
2022-08-05T15:28:27.182Z,27.60
2022-08-05T15:30:56.138Z,27.50
2022-08-05T15:34:18.691Z,27.50
2022-08-05T15:36:17.401Z,27.30
2022-08-05T15:41:02.517Z,27.20
2022-08-05T15:41:58.032Z,27.10
2022-08-05T15:44:30.437Z,26.90
2022-08-05T15:47:01.466Z,26.60
2022-08-05T15:49:48.068Z,26.40
2022-08-05T15:52:52.195Z,26.30
2022-08-05T15:55:06.122Z,26.20
2022-08-05T15:57:35.531Z,26.00
2022-08-05T16:00:05.515Z,25.90
2022-08-05T16:02:33.705Z,25.80
2022-08-05T16:05:01.750Z,25.80
2022-08-05T16:07:29.378Z,25.80
2022-08-05T16:09:57.148Z,25.70
2022-08-05T16:12:27.420Z,25.60
2022-08-05T16:14:54.735Z,25.50
2022-08-05T16:17:26.674Z,25.50
2022-08-05T16:20:05.471Z,25.40
2022-08-05T16:22:41.567Z,25.40
2022-08-05T16:25:10.199Z,25.50
2022-08-05T16:27:47.062Z,25.50
2022-08-05T16:30:29.032Z,25.30
2022-08-05T16:32:57.782Z,25.30
2022-08-05T16:35:32.356Z,25.10
2022-08-05T16:38:18.487Z,25.00
2022-08-05T16:41:00.043Z,25.10
2022-08-05T16:43:33.949Z,25.10
2022-08-05T16:46:12.927Z,25.00
2022-08-05T16:48:53.708Z,24.90
2022-08-05T16:51:30.735Z,24.90
2022-08-05T16:54:17.478Z,24.70
2022-08-05T16:56:46.753Z,24.90
2022-08-05T16:59:19.350Z,24.70
2022-08-05T17:01:54.152Z,24.60
2022-08-05T17:04:28.026Z,24.50
2022-08-05T17:07:00.646Z,24.30
2022-08-05T17:09:57.890Z,24.10
2022-08-05T17:12:32.318Z,24.00
2022-08-05T17:15:09.444Z,23.90
2022-08-05T17:17:42.549Z,23.90
2022-08-05T17:20:14.797Z,23.80
2022-08-05T17:22:43.740Z,23.80
2022-08-05T17:25:33.835Z,23.80
2022-08-05T17:28:04.285Z,23.70
2022-08-05T17:30:32.130Z,23.50
2022-08-05T17:32:59.466Z,23.40
2022-08-05T17:35:26.895Z,23.60
2022-08-05T17:38:04.856Z,23.50
2022-08-05T17:40:32.619Z,23.30
2022-08-05T17:43:00.113Z,23.40
2022-08-05T17:45:38.075Z,23.30
2022-08-05T17:48:07.987Z,23.30
2022-08-05T17:50:36.279Z,23.10
2022-08-05T17:53:08.583Z,23.00
2022-08-05T17:55:38.795Z,22.90
2022-08-05T17:58:11.001Z,22.80
2022-08-05T18:00:45.214Z,22.80
2022-08-05T18:06:06.158Z,22.70
2022-08-05T18:08:44.987Z,22.70
2022-08-05T18:11:24.083Z,22.60
2022-08-05T18:14:07.442Z,22.40
2022-08-05T18:16:51.001Z,22.30
2022-08-05T18:19:22.791Z,22.20
2022-08-05T18:22:09.137Z,22.00
2022-08-05T18:24:43.783Z,21.90
2022-08-05T18:27:18.442Z,21.80
2022-08-05T18:29:54.507Z,21.70
2022-08-05T18:32:28.018Z,21.70
2022-08-05T18:34:57.505Z,21.70
2022-08-05T18:37:34.853Z,21.60
2022-08-05T18:40:33.690Z,21.50
2022-08-05T18:42:59.597Z,21.60
2022-08-05T18:45:41.709Z,21.50
2022-08-05T18:48:17.552Z,21.50
2022-08-05T18:52:04.190Z,21.50
2022-08-05T18:54:08.855Z,21.50
2022-08-05T18:56:36.735Z,21.50
2022-08-05T18:59:43.523Z,21.50
2022-08-05T19:01:56.809Z,21.60
2022-08-05T19:04:26.186Z,21.40
2022-08-05T19:06:54.540Z,21.30
2022-08-05T19:09:21.882Z,21.40
2022-08-05T19:12:01.022Z,21.40
2022-08-05T19:14:44.564Z,21.30
2022-08-05T19:17:19.369Z,21.30
2022-08-05T19:19:48.998Z,21.20
2022-08-05T19:22:17.033Z,21.20
2022-08-05T19:24:54.546Z,21.20
2022-08-05T19:27:30.187Z,21.20
2022-08-05T19:30:03.003Z,21.30
2022-08-05T19:32:31.792Z,21.20
2022-08-05T19:35:05.733Z,21.20
2022-08-05T19:38:04.712Z,21.10
2022-08-05T19:40:26.297Z,21.10
2022-08-05T19:43:04.475Z,21.20
2022-08-05T19:45:36.452Z,21.30
2022-08-05T19:48:06.197Z,21.20
2022-08-05T19:50:36.695Z,21.10
2022-08-05T19:53:10.368Z,21.10
2022-08-05T19:56:14.042Z,21.10
2022-08-05T19:58:30.353Z,21.10
2022-08-05T20:00:58.743Z,21.00
2022-08-05T20:03:27.068Z,21.00
2022-08-05T20:06:11.830Z,20.90
2022-08-05T20:08:47.616Z,20.80
2022-08-05T20:11:19.481Z,20.80
2022-08-05T20:13:58.489Z,20.80
2022-08-05T20:16:35.180Z,20.70
2022-08-05T20:19:04.419Z,20.40
2022-08-05T20:21:34.914Z,20.30
2022-08-05T20:24:11.472Z,20.10
2022-08-05T20:26:38.970Z,20.10
2022-08-05T20:29:26.770Z,19.90
2022-08-05T20:31:58.312Z,19.90
2022-08-05T20:34:27.614Z,19.90
2022-08-05T20:36:55.372Z,19.90
2022-08-05T20:39:25.764Z,19.90
2022-08-05T20:42:03.598Z,19.80
2022-08-05T20:44:32.777Z,19.70
2022-08-05T20:47:08.862Z,19.80
2022-08-05T20:49:39.263Z,19.90
2022-08-05T20:52:08.438Z,19.90
2022-08-05T20:54:42.662Z,19.90
2022-08-05T20:57:14.264Z,19.80
2022-08-05T21:00:10.670Z,19.60
2022-08-05T21:02:39.489Z,19.50
2022-08-05T21:05:11.250Z,19.40
2022-08-05T21:07:50.766Z,19.30
2022-08-05T21:10:22.551Z,19.20
2022-08-05T21:13:08.989Z,19.10
2022-08-05T21:15:46.124Z,19.10
2022-08-05T21:18:19.032Z,19.00
2022-08-05T21:20:49.181Z,19.00
2022-08-05T21:23:16.448Z,18.80
2022-08-05T21:25:44.817Z,18.90
2022-08-05T21:28:18.511Z,18.80
2022-08-05T21:30:53.305Z,18.80
2022-08-05T21:33:23.643Z,18.80
2022-08-05T21:35:58.995Z,18.80
2022-08-05T21:38:27.495Z,18.80
2022-08-05T21:40:57.317Z,18.70
2022-08-05T21:43:28.128Z,18.70
2022-08-05T21:46:09.506Z,18.50
2022-08-05T21:48:39.665Z,18.50
2022-08-05T21:52:15.532Z,18.40
2022-08-05T21:54:03.526Z,18.30
2022-08-05T21:56:31.934Z,18.40
2022-08-05T21:59:01.071Z,18.30
2022-08-05T22:01:35.766Z,18.30
2022-08-05T22:04:03.295Z,18.30
2022-08-05T22:06:35.476Z,18.40
2022-08-05T22:09:15.198Z,18.40
2022-08-05T22:11:48.566Z,18.20
2022-08-05T22:14:33.326Z,18.10
2022-08-05T22:17:05.294Z,18.00
2022-08-05T22:20:01.836Z,18.00
2022-08-05T22:22:27.677Z,18.00
2022-08-05T22:25:21.056Z,18.00
2022-08-05T22:28:09.062Z,17.90
2022-08-05T22:30:55.690Z,17.70
2022-08-05T22:33:57.880Z,17.70
2022-08-05T22:36:14.638Z,17.80
2022-08-05T22:38:48.343Z,17.80
2022-08-05T22:42:04.794Z,17.80
2022-08-05T22:44:08.190Z,17.60
2022-08-05T22:46:39.607Z,17.50
2022-08-05T22:50:18.410Z,17.30
2022-08-05T22:52:05.862Z,17.40
2022-08-05T22:54:36.553Z,17.30
2022-08-05T22:57:06.767Z,17.20
2022-08-05T22:59:44.032Z,17.00
2022-08-05T23:02:17.994Z,17.00
2022-08-05T23:04:51.372Z,17.10
2022-08-05T23:07:22.064Z,17.10
2022-08-05T23:09:57.951Z,17.20
2022-08-05T23:12:32.382Z,17.30
2022-08-05T23:15:03.514Z,17.30
2022-08-05T23:17:37.236Z,17.30
2022-08-05T23:20:17.707Z,17.30
2022-08-05T23:22:47.837Z,17.10
2022-08-05T23:25:51.258Z,17.00
2022-08-05T23:28:07.881Z,17.10
2022-08-05T23:30:39.776Z,17.20
2022-08-05T23:33:22.525Z,17.10
2022-08-05T23:35:56.048Z,17.00
2022-08-05T23:38:26.822Z,16.80
2022-08-05T23:40:54.317Z,16.70
2022-08-05T23:43:25.121Z,16.60
2022-08-05T23:46:20.087Z,16.60
2022-08-05T23:49:00.236Z,16.40
2022-08-05T23:51:54.114Z,16.40
2022-08-05T23:54:30.422Z,16.40
2022-08-05T23:57:08.102Z,16.30
